Time;durP1;ratioP1;P1;durP2;ratioP2;P2;SDS_P1;SDS_P2;PMS_P1;PMS_P2;Temp;Humidity;BMP_temperature;BMP_pressure;BME280_temperature;BME280_humidity;BME280_pressure;Samples;Min_cycle;Max_cycle;Signal;HPM_P1;HPM_P2
2021/06/12 00:00:37;;;;;;;9.23;8.32;;;;;;;;;;5073175;28;20077;-68
2021/06/12 00:03:04;;;;;;;9.02;8.13;;;;;;;;;;5072986;28;20024;-69
2021/06/12 00:05:29;;;;;;;9.82;8.77;;;;;;;;;;5073767;28;20028;-70
2021/06/12 00:07:54;;;;;;;8.55;7.60;;;;;;;;;;5088573;28;20023;-68
2021/06/12 00:10:21;;;;;;;9.65;8.65;;;;;;;;;;5074434;28;20016;-68
2021/06/12 00:12:48;;;;;;;9.35;8.55;;;;;;;;;;5074158;28;20538;-69
2021/06/12 00:15:14;;;;;;;8.23;7.57;;;;;;;;;;5088672;28;20107;-68
2021/06/12 00:17:39;;;;;;;8.13;7.53;;;;;;;;;;5070349;28;20035;-69
2021/06/12 00:20:06;;;;;;;8.55;7.78;;;;;;;;;;5073748;28;20024;-68
2021/06/12 00:22:31;;;;;;;8.00;7.28;;;;;;;;;;5068761;28;20031;-68
2021/06/12 00:24:56;;;;;;;8.65;7.93;;;;;;;;;;5053127;28;20387;-69
2021/06/12 00:27:22;;;;;;;8.27;7.68;;;;;;;;;;5068261;28;20472;-68
2021/06/12 00:29:48;;;;;;;8.25;7.57;;;;;;;;;;5073341;28;20635;-69
2021/06/12 00:32:14;;;;;;;9.13;8.43;;;;;;;;;;5072814;28;20020;-68
2021/06/12 00:34:39;;;;;;;7.85;7.20;;;;;;;;;;5074035;28;20021;-68
2021/06/12 00:37:04;;;;;;;8.70;7.90;;;;;;;;;;5069861;28;20081;-68
2021/06/12 00:39:29;;;;;;;8.30;7.60;;;;;;;;;;5073117;28;20180;-67
2021/06/12 00:41:55;;;;;;;8.35;7.65;;;;;;;;;;5073387;28;20028;-68
2021/06/12 00:44:20;;;;;;;8.82;8.02;;;;;;;;;;5082046;28;20024;-68
2021/06/12 00:46:45;;;;;;;8.90;8.18;;;;;;;;;;5070096;28;20043;-69
2021/06/12 00:49:10;;;;;;;9.63;8.65;;;;;;;;;;5071035;28;20106;-69
2021/06/12 00:51:35;;;;;;;8.95;8.25;;;;;;;;;;5073249;28;20456;-69
2021/06/12 00:54:01;;;;;;;9.40;8.70;;;;;;;;;;5073596;28;20382;-69
2021/06/12 00:56:26;;;;;;;9.45;8.57;;;;;;;;;;5072121;28;20387;-69
2021/06/12 00:58:52;;;;;;;9.48;8.60;;;;;;;;;;5070408;28;20025;-69
2021/06/12 01:01:19;;;;;;;9.40;8.50;;;;;;;;;;5073072;28;20025;-69
2021/06/12 01:03:45;;;;;;;10.32;8.50;;;;;;;;;;5073269;28;20459;-69
2021/06/12 01:06:11;;;;;;;9.60;8.68;;;;;;;;;;5079189;28;20152;-69
2021/06/12 01:08:37;;;;;;;9.73;8.82;;;;;;;;;;5075891;28;20027;-69
2021/06/12 01:11:03;;;;;;;9.85;9.02;;;;;;;;;;5071675;28;20383;-69
2021/06/12 01:13:43;;;;;;;9.68;8.88;;;;;;;;;;5072981;28;20032;-69
2021/06/12 01:16:13;;;;;;;9.43;8.63;;;;;;;;;;5071175;28;20019;-69
2021/06/12 01:18:41;;;;;;;9.80;8.88;;;;;;;;;;5069718;28;20048;-69
2021/06/12 01:21:15;;;;;;;10.27;9.30;;;;;;;;;;5072230;28;20107;-68
2021/06/12 01:23:54;;;;;;;9.68;8.95;;;;;;;;;;5072679;28;20023;-70
2021/06/12 01:26:33;;;;;;;9.68;8.75;;;;;;;;;;5072054;28;20032;-69
2021/06/12 01:29:17;;;;;;;9.27;8.50;;;;;;;;;;5070517;28;20019;-69
2021/06/12 01:31:42;;;;;;;9.73;8.93;;;;;;;;;;5071399;28;20032;-68
2021/06/12 01:34:07;;;;;;;9.32;8.60;;;;;;;;;;5072607;28;20020;-69
2021/06/12 01:36:33;;;;;;;8.70;8.05;;;;;;;;;;5071020;28;20046;-69
2021/06/12 01:38:59;;;;;;;10.57;9.60;;;;;;;;;;5068982;28;20021;-69
2021/06/12 01:41:25;;;;;;;9.65;8.85;;;;;;;;;;5072582;28;20078;-69
2021/06/12 01:43:51;;;;;;;9.55;8.70;;;;;;;;;;5072450;28;20035;-69
2021/06/12 01:46:17;;;;;;;8.27;7.68;;;;;;;;;;5072721;28;20111;-69
2021/06/12 01:48:43;;;;;;;8.90;8.20;;;;;;;;;;5067831;28;20103;-69
2021/06/12 01:51:08;;;;;;;8.13;7.43;;;;;;;;;;5072201;28;20024;-69
2021/06/12 01:53:35;;;;;;;8.80;8.00;;;;;;;;;;5072358;28;20016;-69
2021/06/12 01:56:02;;;;;;;8.45;7.80;;;;;;;;;;5072163;28;20074;-68
2021/06/12 01:58:28;;;;;;;8.25;7.65;;;;;;;;;;5067506;28;20119;-68
2021/06/12 02:00:54;;;;;;;8.80;8.10;;;;;;;;;;5071923;28;20104;-69
2021/06/12 02:03:19;;;;;;;9.20;8.40;;;;;;;;;;5072546;28;20032;-69
2021/06/12 02:05:45;;;;;;;8.85;8.15;;;;;;;;;;5074496;28;20391;-69
2021/06/12 02:08:13;;;;;;;8.35;7.65;;;;;;;;;;5088291;28;20054;-68
2021/06/12 02:10:38;;;;;;;8.95;8.15;;;;;;;;;;5070385;28;20066;-69
2021/06/12 02:13:03;;;;;;;9.20;8.38;;;;;;;;;;5072379;28;20020;-69
2021/06/12 02:15:29;;;;;;;8.18;7.57;;;;;;;;;;5072249;28;20023;-69
2021/06/12 02:18:05;;;;;;;8.88;7.97;;;;;;;;;;5069332;28;20099;-68
2021/06/12 02:20:33;;;;;;;7.35;6.75;;;;;;;;;;5072727;28;20077;-67
2021/06/12 02:22:58;;;;;;;7.47;6.78;;;;;;;;;;5076988;28;20025;-69
2021/06/12 02:25:23;;;;;;;7.03;6.53;;;;;;;;;;5070427;28;20020;-70
2021/06/12 02:27:54;;;;;;;7.57;6.97;;;;;;;;;;5068520;28;20097;-68
2021/06/12 02:30:21;;;;;;;7.82;7.07;;;;;;;;;;5070508;28;20027;-68
2021/06/12 02:32:48;;;;;;;8.07;7.25;;;;;;;;;;5070814;28;20198;-68
2021/06/12 02:35:13;;;;;;;7.22;6.53;;;;;;;;;;5071976;28;20020;-68
2021/06/12 02:37:39;;;;;;;7.22;6.63;;;;;;;;;;5068793;28;20115;-68
2021/06/12 02:40:05;;;;;;;7.13;6.53;;;;;;;;;;5071476;28;20068;-68
2021/06/12 02:42:31;;;;;;;7.20;6.53;;;;;;;;;;5071682;28;20040;-68
2021/06/12 02:44:56;;;;;;;7.20;6.60;;;;;;;;;;5071912;28;20082;-69
2021/06/12 02:47:22;;;;;;;8.88;6.80;;;;;;;;;;5067885;28;20032;-68
2021/06/12 02:49:48;;;;;;;7.47;6.88;;;;;;;;;;5071526;28;20027;-69
2021/06/12 02:52:18;;;;;;;8.05;7.35;;;;;;;;;;5070256;28;20017;-69
2021/06/12 02:54:45;;;;;;;7.55;6.85;;;;;;;;;;5071921;28;20095;-69
2021/06/12 02:57:10;;;;;;;7.78;7.20;;;;;;;;;;5068577;28;20463;-69
2021/06/12 02:59:36;;;;;;;8.05;7.32;;;;;;;;;;5071276;28;20064;-69
2021/06/12 03:02:02;;;;;;;7.75;7.05;;;;;;;;;;5071167;28;20077;-69
2021/06/12 03:04:30;;;;;;;7.75;7.15;;;;;;;;;;5071761;28;20091;-69
2021/06/12 03:06:56;;;;;;;7.57;6.95;;;;;;;;;;5080950;28;20020;-69
2021/06/12 03:09:24;;;;;;;8.52;7.75;;;;;;;;;;5083542;28;20498;-69
2021/06/12 03:11:51;;;;;;;7.55;6.95;;;;;;;;;;5071502;28;20024;-69
2021/06/12 03:14:17;;;;;;;7.78;7.00;;;;;;;;;;5071652;28;20097;-69
2021/06/12 03:16:44;;;;;;;7.38;6.78;;;;;;;;;;5068468;28;20432;-69
2021/06/12 03:19:09;;;;;;;8.30;7.50;;;;;;;;;;5071980;28;20043;-69
2021/06/12 03:21:35;;;;;;;8.65;7.85;;;;;;;;;;5071662;28;20357;-69
2021/06/12 03:24:01;;;;;;;8.52;7.88;;;;;;;;;;5091950;28;20063;-69
2021/06/12 03:26:27;;;;;;;8.85;8.05;;;;;;;;;;5091590;28;20062;-69
2021/06/12 03:28:52;;;;;;;8.60;7.97;;;;;;;;;;5077518;28;20023;-70
2021/06/12 03:31:18;;;;;;;8.32;7.72;;;;;;;;;;5069918;28;20114;-69
2021/06/12 03:33:44;;;;;;;8.63;7.95;;;;;;;;;;5070234;28;20025;-69
2021/06/12 03:36:09;;;;;;;9.35;8.50;;;;;;;;;;5071285;28;20017;-69
2021/06/12 03:38:35;;;;;;;9.13;8.38;;;;;;;;;;5068115;28;20031;-69
2021/06/12 03:41:01;;;;;;;7.72;7.13;;;;;;;;;;5073242;28;20044;-69
2021/06/12 03:43:27;;;;;;;7.85;7.18;;;;;;;;;;5107522;28;20064;-70
2021/06/12 03:45:56;;;;;;;8.77;7.97;;;;;;;;;;5073511;28;20115;-69
2021/06/12 03:48:22;;;;;;;7.95;7.32;;;;;;;;;;5070404;28;20070;-69
2021/06/12 03:50:48;;;;;;;8.25;7.55;;;;;;;;;;5073467;28;20013;-69
2021/06/12 03:53:13;;;;;;;9.02;8.23;;;;;;;;;;5073598;28;20052;-69
2021/06/12 03:55:39;;;;;;;8.60;7.80;;;;;;;;;;5074197;28;20031;-68
2021/06/12 03:58:04;;;;;;;8.20;7.50;;;;;;;;;;5071389;28;20021;-69
2021/06/12 04:00:31;;;;;;;7.70;7.10;;;;;;;;;;5074505;28;20024;-69
2021/06/12 04:02:56;;;;;;;7.45;6.85;;;;;;;;;;5074547;28;20017;-69
2021/06/12 04:05:21;;;;;;;7.93;7.32;;;;;;;;;;5073241;28;20449;-69
2021/06/12 04:07:46;;;;;;;7.13;6.63;;;;;;;;;;5071197;28;20021;-69
2021/06/12 04:10:12;;;;;;;9.38;7.43;;;;;;;;;;5073109;28;20013;-69
2021/06/12 04:12:37;;;;;;;7.97;7.28;;;;;;;;;;5073903;28;20069;-69
2021/06/12 04:15:03;;;;;;;8.98;8.18;;;;;;;;;;5074216;28;20025;-69
2021/06/12 04:17:29;;;;;;;9.40;8.65;;;;;;;;;;5071233;28;20392;-68
2021/06/12 04:19:54;;;;;;;8.45;7.85;;;;;;;;;;5074266;28;20031;-69
2021/06/12 04:22:19;;;;;;;8.40;7.72;;;;;;;;;;5072856;28;20012;-69
2021/06/12 04:24:44;;;;;;;8.85;8.18;;;;;;;;;;5074224;28;20025;-69
2021/06/12 04:27:10;;;;;;;9.20;7.55;;;;;;;;;;5070317;28;20016;-69
2021/06/12 04:29:35;;;;;;;8.75;7.95;;;;;;;;;;5072450;28;20035;-69
2021/06/12 04:32:00;;;;;;;8.32;7.63;;;;;;;;;;5074163;28;20096;-69
2021/06/12 04:34:25;;;;;;;8.50;7.78;;;;;;;;;;5106478;28;20491;-69
2021/06/12 04:36:51;;;;;;;8.43;7.72;;;;;;;;;;5070977;28;20328;-69
2021/06/12 04:39:16;;;;;;;8.95;8.25;;;;;;;;;;5072188;28;20044;-69
2021/06/12 04:41:41;;;;;;;9.13;8.32;;;;;;;;;;5073267;28;20187;-69
2021/06/12 04:44:07;;;;;;;8.48;7.85;;;;;;;;;;5072478;28;20027;-70
2021/06/12 04:46:32;;;;;;;9.05;8.15;;;;;;;;;;5071877;28;20020;-69
2021/06/12 04:48:57;;;;;;;8.57;7.88;;;;;;;;;;5071462;28;20070;-69
2021/06/12 04:51:23;;;;;;;8.07;7.38;;;;;;;;;;5073636;28;20020;-71
2021/06/12 04:53:48;;;;;;;7.97;7.30;;;;;;;;;;5073613;28;20027;-69
2021/06/12 04:56:13;;;;;;;8.35;7.57;;;;;;;;;;5071748;28;20108;-71
2021/06/12 04:58:38;;;;;;;8.23;7.57;;;;;;;;;;5070079;28;20107;-69
2021/06/12 05:01:04;;;;;;;8.07;7.47;;;;;;;;;;5073578;28;20027;-70
2021/06/12 05:03:29;;;;;;;8.55;7.85;;;;;;;;;;5073283;28;20029;-70
2021/06/12 05:05:54;;;;;;;8.05;7.43;;;;;;;;;;5075579;28;20391;-69
2021/06/12 05:08:20;;;;;;;9.35;6.93;;;;;;;;;;5102826;28;20480;-69
2021/06/12 05:10:45;;;;;;;7.25;6.70;;;;;;;;;;5072202;28;20149;-69
2021/06/12 05:13:10;;;;;;;8.02;7.35;;;;;;;;;;5073054;28;20013;-69
2021/06/12 05:15:36;;;;;;;7.88;7.38;;;;;;;;;;5073147;28;20095;-70
2021/06/12 05:18:05;;;;;;;8.80;8.10;;;;;;;;;;5069122;28;20020;-69
2021/06/12 05:20:35;;;;;;;8.57;7.93;;;;;;;;;;5071445;28;20020;-69
2021/06/12 05:23:01;;;;;;;8.85;7.95;;;;;;;;;;5085615;28;20027;-69
2021/06/12 05:25:26;;;;;;;8.57;7.78;;;;;;;;;;5078681;28;20032;-69
2021/06/12 05:27:51;;;;;;;7.50;6.70;;;;;;;;;;5074463;28;20166;-68
2021/06/12 05:30:17;;;;;;;9.15;8.35;;;;;;;;;;5074768;28;20083;-68
2021/06/12 05:32:42;;;;;;;9.00;8.30;;;;;;;;;;5071539;28;20074;-69
2021/06/12 05:35:07;;;;;;;8.10;7.30;;;;;;;;;;5071598;28;20055;-67
2021/06/12 05:37:36;;;;;;;8.68;8.07;;;;;;;;;;5082462;28;20483;-68
2021/06/12 05:40:02;;;;;;;8.95;8.30;;;;;;;;;;5072433;28;20040;-68
2021/06/12 05:42:28;;;;;;;9.35;8.68;;;;;;;;;;5071244;28;20012;-67
2021/06/12 05:44:53;;;;;;;8.82;8.13;;;;;;;;;;5075605;28;20086;-67
2021/06/12 05:47:18;;;;;;;8.73;8.10;;;;;;;;;;5069686;28;20024;-67
2021/06/12 05:49:44;;;;;;;9.30;8.38;;;;;;;;;;5070364;28;20020;-68
2021/06/12 05:52:09;;;;;;;9.23;8.52;;;;;;;;;;5072472;28;20016;-68
2021/06/12 05:54:34;;;;;;;9.32;8.40;;;;;;;;;;5072622;28;20019;-67
2021/06/12 05:57:00;;;;;;;9.30;8.50;;;;;;;;;;5068976;28;20115;-67
2021/06/12 05:59:25;;;;;;;9.75;8.80;;;;;;;;;;5071905;28;20039;-68
2021/06/12 06:01:50;;;;;;;8.88;8.15;;;;;;;;;;5080332;28;20020;-67
2021/06/12 06:04:16;;;;;;;8.35;7.60;;;;;;;;;;5076521;28;20032;-66
2021/06/12 06:06:41;;;;;;;9.10;8.13;;;;;;;;;;5069475;28;20046;-66
2021/06/12 06:09:06;;;;;;;8.88;8.10;;;;;;;;;;5070537;28;20479;-67
2021/06/12 06:11:31;;;;;;;8.15;7.55;;;;;;;;;;5072133;28;20515;-67
2021/06/12 06:13:57;;;;;;;9.02;8.25;;;;;;;;;;5070853;28;20020;-67
2021/06/12 06:16:22;;;;;;;8.85;7.28;;;;;;;;;;5077931;28;20101;-67
2021/06/12 06:18:47;;;;;;;7.65;7.10;;;;;;;;;;5087947;28;20097;-66
2021/06/12 06:21:12;;;;;;;7.80;7.13;;;;;;;;;;5084907;28;20016;-67
2021/06/12 06:23:38;;;;;;;7.55;6.95;;;;;;;;;;5081788;28;20062;-66
2021/06/12 06:26:03;;;;;;;6.75;6.15;;;;;;;;;;5071826;28;20070;-68
2021/06/12 06:28:29;;;;;;;7.78;7.00;;;;;;;;;;5068702;28;20406;-66
2021/06/12 06:30:54;;;;;;;6.88;6.35;;;;;;;;;;5070768;28;20024;-67
2021/06/12 06:33:21;;;;;;;6.55;5.95;;;;;;;;;;5072303;28;20096;-67
2021/06/12 06:35:47;;;;;;;7.13;6.45;;;;;;;;;;5072129;28;20345;-67
2021/06/12 06:38:12;;;;;;;7.53;6.93;;;;;;;;;;5067402;28;20078;-67
2021/06/12 06:40:38;;;;;;;9.05;6.38;;;;;;;;;;5071282;28;20043;-66
2021/06/12 06:43:03;;;;;;;7.15;6.45;;;;;;;;;;5071750;28;20543;-67
2021/06/12 06:45:28;;;;;;;6.72;5.97;;;;;;;;;;5071866;28;20379;-68
2021/06/12 06:47:53;;;;;;;6.40;5.90;;;;;;;;;;5067628;28;20368;-69
2021/06/12 06:50:19;;;;;;;6.47;5.90;;;;;;;;;;5073171;28;20024;-68
2021/06/12 06:52:46;;;;;;;6.53;6.03;;;;;;;;;;5074517;28;20630;-67
2021/06/12 06:55:12;;;;;;;5.93;5.53;;;;;;;;;;5069779;28;20023;-68
2021/06/12 06:57:37;;;;;;;6.53;5.93;;;;;;;;;;5067097;28;20016;-68
2021/06/12 07:00:04;;;;;;;5.95;5.55;;;;;;;;;;5071521;28;20017;-69
2021/06/12 07:02:29;;;;;;;6.07;5.50;;;;;;;;;;5089517;28;20030;-68
2021/06/12 07:04:54;;;;;;;6.10;5.60;;;;;;;;;;5089768;28;20024;-66
2021/06/12 07:07:19;;;;;;;7.80;5.82;;;;;;;;;;5070610;28;20123;-66
2021/06/12 07:09:45;;;;;;;6.13;5.63;;;;;;;;;;5071047;28;20017;-66
2021/06/12 07:12:10;;;;;;;5.88;5.47;;;;;;;;;;5104030;28;20259;-67
2021/06/12 07:14:37;;;;;;;6.40;5.80;;;;;;;;;;5072765;28;20388;-67
2021/06/12 07:17:03;;;;;;;7.22;6.63;;;;;;;;;;5071712;28;20016;-67
2021/06/12 07:19:28;;;;;;;8.02;6.28;;;;;;;;;;5073657;28;20032;-66
2021/06/12 07:21:53;;;;;;;6.28;5.70;;;;;;;;;;5073309;28;20024;-66
2021/06/12 07:24:18;;;;;;;6.28;5.78;;;;;;;;;;5075236;28;20028;-66
2021/06/12 07:26:44;;;;;;;6.03;5.63;;;;;;;;;;5071869;28;20079;-66
2021/06/12 07:29:10;;;;;;;7.10;6.50;;;;;;;;;;5073546;28;20009;-65
2021/06/12 07:31:36;;;;;;;6.18;5.68;;;;;;;;;;5074787;28;20035;-66
2021/06/12 07:34:01;;;;;;;7.63;7.03;;;;;;;;;;5073937;28;20472;-66
2021/06/12 07:36:27;;;;;;;6.63;6.03;;;;;;;;;;5075283;28;20024;-67
2021/06/12 07:38:52;;;;;;;7.00;6.40;;;;;;;;;;5068878;28;20440;-66
2021/06/12 07:41:18;;;;;;;8.05;6.70;;;;;;;;;;5073710;28;20322;-67
2021/06/12 07:43:43;;;;;;;6.22;5.60;;;;;;;;;;5073634;28;20054;-71
2021/06/12 07:46:08;;;;;;;7.80;7.00;;;;;;;;;;5073776;28;20025;-70
2021/06/12 07:48:33;;;;;;;8.63;6.78;;;;;;;;;;5103882;28;20024;-71
2021/06/12 07:50:58;;;;;;;7.97;7.20;;;;;;;;;;5072663;28;20103;-69
2021/06/12 07:53:24;;;;;;;8.00;7.15;;;;;;;;;;5074516;28;20024;-68
2021/06/12 07:55:49;;;;;;;9.17;7.87;;;;;;;;;;5074153;28;20023;-69
2021/06/12 07:58:14;;;;;;;7.72;6.47;;;;;;;;;;5070115;28;20277;-70
2021/06/12 08:00:39;;;;;;;7.75;6.95;;;;;;;;;;5073999;28;20028;-71
2021/06/12 08:03:05;;;;;;;8.77;7.80;;;;;;;;;;5074106;28;20506;-68
2021/06/12 08:05:30;;;;;;;9.95;6.13;;;;;;;;;;5075915;28;20078;-69
2021/06/12 08:07:55;;;;;;;9.43;8.02;;;;;;;;;;5078440;28;20617;-70
2021/06/12 08:10:21;;;;;;;8.20;6.75;;;;;;;;;;5074436;28;20020;-70
2021/06/12 08:12:46;;;;;;;9.40;8.02;;;;;;;;;;5074183;28;20085;-71
2021/06/12 08:15:11;;;;;;;8.88;7.60;;;;;;;;;;5074461;28;20023;-69
2021/06/12 08:17:37;;;;;;;6.03;5.43;;;;;;;;;;5071409;28;20031;-69
2021/06/12 08:20:02;;;;;;;8.77;7.13;;;;;;;;;;5072518;28;20020;-69
2021/06/12 08:22:28;;;;;;;8.40;7.00;;;;;;;;;;5076595;28;20043;-69
2021/06/12 08:24:53;;;;;;;5.75;5.05;;;;;;;;;;5079919;28;20020;-69
2021/06/12 08:27:18;;;;;;;8.02;7.22;;;;;;;;;;5069622;28;20017;-69
2021/06/12 08:29:43;;;;;;;8.65;7.18;;;;;;;;;;5073615;28;20017;-69
2021/06/12 08:32:09;;;;;;;9.88;7.65;;;;;;;;;;5073748;28;20016;-69
2021/06/12 08:34:35;;;;;;;5.70;4.90;;;;;;;;;;5069004;28;20089;-69
2021/06/12 08:37:02;;;;;;;8.07;6.22;;;;;;;;;;5073207;28;20106;-70
2021/06/12 08:39:27;;;;;;;8.38;7.47;;;;;;;;;;5064868;28;20436;-69
2021/06/12 08:41:52;;;;;;;11.68;8.98;;;;;;;;;;5072878;28;20031;-70
2021/06/12 08:44:20;;;;;;;9.32;8.20;;;;;;;;;;5069767;28;20364;-69
2021/06/12 08:46:45;;;;;;;8.25;6.93;;;;;;;;;;5051680;28;20029;-69
2021/06/12 08:49:10;;;;;;;8.60;7.78;;;;;;;;;;5063282;28;20025;-70
2021/06/12 08:51:35;;;;;;;8.75;6.55;;;;;;;;;;5076343;28;20044;-68
2021/06/12 08:54:01;;;;;;;6.03;4.27;;;;;;;;;;5076714;28;20020;-66
2021/06/12 08:56:26;;;;;;;6.32;4.93;;;;;;;;;;5078057;28;20270;-71
2021/06/12 08:58:51;;;;;;;4.93;4.03;;;;;;;;;;5102507;28;20017;-68
2021/06/12 09:01:17;;;;;;;5.85;4.72;;;;;;;;;;5105212;28;20484;-68
2021/06/12 09:03:43;;;;;;;6.20;5.13;;;;;;;;;;5074116;28;20099;-69
2021/06/12 09:06:08;;;;;;;5.18;4.68;;;;;;;;;;5076734;28;20020;-68
2021/06/12 09:08:36;;;;;;;7.28;5.10;;;;;;;;;;5068650;28;20032;-68
2021/06/12 09:11:10;;;;;;;6.00;4.65;;;;;;;;;;5071282;28;20016;-68
2021/06/12 09:13:35;;;;;;;5.97;5.38;;;;;;;;;;5071249;28;20324;-68
2021/06/12 09:16:02;;;;;;;6.67;5.97;;;;;;;;;;5089311;28;20019;-68
2021/06/12 09:18:54;;;;;;;6.57;5.80;;;;;;;;;;5076504;28;20417;-68
2021/06/12 09:21:26;;;;;;;6.22;5.38;;;;;;;;;;5084005;28;20029;-68
2021/06/12 09:23:53;;;;;;;7.32;5.85;;;;;;;;;;5075002;28;20020;-68
2021/06/12 09:26:19;;;;;;;8.13;6.50;;;;;;;;;;5077437;28;20024;-68
2021/06/12 09:28:45;;;;;;;7.50;6.18;;;;;;;;;;5071590;28;20024;-68
2021/06/12 09:31:27;;;;;;;7.75;6.10;;;;;;;;;;5080562;28;20016;-68
2021/06/12 09:33:56;;;;;;;6.72;6.05;;;;;;;;;;5070849;28;20087;-69
2021/06/12 09:36:31;;;;;;;7.95;6.30;;;;;;;;;;5070920;28;20028;-69
2021/06/12 09:39:15;;;;;;;5.68;4.82;;;;;;;;;;5069489;28;20095;-69
2021/06/12 09:41:44;;;;;;;7.93;6.95;;;;;;;;;;5078343;28;20024;-69
2021/06/12 09:44:10;;;;;;;8.75;7.47;;;;;;;;;;5069035;28;20371;-69
2021/06/12 09:46:40;;;;;;;8.43;7.25;;;;;;;;;;5065433;28;20024;-70
2021/06/12 09:49:06;;;;;;;7.60;6.75;;;;;;;;;;5074408;28;20424;-71
2021/06/12 09:51:32;;;;;;;7.53;6.72;;;;;;;;;;5063965;28;20019;-68
2021/06/12 09:53:59;;;;;;;7.10;5.72;;;;;;;;;;5066192;28;20404;-68
2021/06/12 09:56:25;;;;;;;7.43;6.63;;;;;;;;;;5067105;28;20453;-68
2021/06/12 09:58:50;;;;;;;5.90;5.35;;;;;;;;;;5066911;28;20495;-68
2021/06/12 10:01:18;;;;;;;8.10;5.03;;;;;;;;;;5070542;28;20055;-67
2021/06/12 10:03:44;;;;;;;5.80;5.30;;;;;;;;;;5063506;28;20031;-68
2021/06/12 10:06:09;;;;;;;5.95;5.28;;;;;;;;;;5065777;28;20036;-68
2021/06/12 10:08:35;;;;;;;7.00;6.30;;;;;;;;;;5061173;28;20035;-68
2021/06/12 10:11:01;;;;;;;8.05;6.20;;;;;;;;;;5065282;28;20078;-71
2021/06/12 10:13:27;;;;;;;7.10;6.30;;;;;;;;;;5071220;28;20043;-71
2021/06/12 10:15:53;;;;;;;7.95;6.78;;;;;;;;;;5067627;28;20111;-69
2021/06/12 10:18:19;;;;;;;6.72;5.53;;;;;;;;;;5075051;28;20646;-69
2021/06/12 10:20:45;;;;;;;5.47;4.95;;;;;;;;;;5075999;28;20082;-67
2021/06/12 10:23:10;;;;;;;7.00;5.18;;;;;;;;;;5079293;28;20498;-67
2021/06/12 10:25:36;;;;;;;6.03;5.43;;;;;;;;;;5067832;28;20040;-67
2021/06/12 10:28:01;;;;;;;5.57;5.07;;;;;;;;;;5071616;28;20082;-67
2021/06/12 10:30:27;;;;;;;7.38;5.43;;;;;;;;;;5071214;28;20020;-67
2021/06/12 10:32:53;;;;;;;6.47;5.78;;;;;;;;;;5068910;28;20056;-67
2021/06/12 10:35:19;;;;;;;5.80;5.20;;;;;;;;;;5078903;28;20106;-66
2021/06/12 10:38:05;;;;;;;8.27;5.00;;;;;;;;;;5072836;28;20036;-67
2021/06/12 10:40:36;;;;;;;4.57;4.18;;;;;;;;;;5072397;28;20156;-67
2021/06/12 10:43:05;;;;;;;6.20;4.90;;;;;;;;;;5070982;28;20024;-68
2021/06/12 10:45:30;;;;;;;7.88;5.32;;;;;;;;;;5072048;28;20012;-68
2021/06/12 10:47:56;;;;;;;5.40;4.77;;;;;;;;;;5078467;28;20490;-69
2021/06/12 10:50:24;;;;;;;5.57;4.90;;;;;;;;;;5106855;28;20270;-69
2021/06/12 10:52:50;;;;;;;5.68;5.18;;;;;;;;;;5074669;28;20566;-71
2021/06/12 10:55:44;;;;;;;6.20;5.60;;;;;;;;;;5074746;28;20056;-71
2021/06/12 10:58:28;;;;;;;5.38;4.88;;;;;;;;;;5073140;28;20037;-69
2021/06/12 11:01:06;;;;;;;3.90;3.45;;;;;;;;;;5086256;28;20573;-70
2021/06/12 11:03:47;;;;;;;6.45;4.97;;;;;;;;;;5084609;28;20137;-69
2021/06/12 11:09:15;;;;;;;5.65;5.03;;;;;;;;;;5088092;28;20433;-70
2021/06/12 11:11:44;;;;;;;5.47;4.82;;;;;;;;;;5079629;28;20052;-70
2021/06/12 11:14:21;;;;;;;6.72;5.70;;;;;;;;;;5084827;28;20025;-70
2021/06/12 11:17:09;;;;;;;5.60;3.63;;;;;;;;;;5070728;28;20024;-71
2021/06/12 11:19:35;;;;;;;5.95;5.00;;;;;;;;;;5073823;28;20490;-69
2021/06/12 11:22:19;;;;;;;5.93;4.75;;;;;;;;;;5077299;28;20051;-70
2021/06/12 11:24:45;;;;;;;8.00;6.33;;;;;;;;;;5079629;28;20087;-71
2021/06/12 11:27:29;;;;;;;7.68;6.72;;;;;;;;;;5072295;28;20040;-70
2021/06/12 11:30:13;;;;;;;7.53;6.82;;;;;;;;;;5072729;28;20021;-69
2021/06/12 11:32:42;;;;;;;7.07;6.20;;;;;;;;;;5085490;28;20049;-71
2021/06/12 11:35:07;;;;;;;7.50;6.75;;;;;;;;;;5076001;28;20024;-71
2021/06/12 11:37:33;;;;;;;9.45;5.47;;;;;;;;;;5071069;28;20036;-70
2021/06/12 11:40:01;;;;;;;8.32;6.32;;;;;;;;;;5065253;28;20052;-71
2021/06/12 11:42:43;;;;;;;6.05;5.03;;;;;;;;;;5073963;28;20044;-71
2021/06/12 11:45:19;;;;;;;4.25;3.78;;;;;;;;;;5074098;28;20024;-71
2021/06/12 11:47:45;;;;;;;5.80;5.10;;;;;;;;;;5085948;28;20472;-72
2021/06/12 11:50:10;;;;;;;10.27;7.50;;;;;;;;;;5078248;28;20019;-68
2021/06/12 11:52:39;;;;;;;7.43;5.28;;;;;;;;;;5084526;28;20141;-67
2021/06/12 11:55:11;;;;;;;6.68;6.05;;;;;;;;;;5075171;28;20116;-67
2021/06/12 11:57:43;;;;;;;5.97;4.32;;;;;;;;;;5090201;28;20166;-67
2021/06/12 12:00:29;;;;;;;8.25;7.30;;;;;;;;;;5063528;28;20036;-67
2021/06/12 12:02:57;;;;;;;6.90;6.20;;;;;;;;;;5073853;28;20036;-68
2021/06/12 12:05:23;;;;;;;3.50;3.05;;;;;;;;;;5083294;28;20051;-68
2021/06/12 12:07:48;;;;;;;5.50;4.80;;;;;;;;;;5074551;28;20317;-68
2021/06/12 12:10:13;;;;;;;5.32;4.82;;;;;;;;;;5091059;28;20024;-69
2021/06/12 12:12:39;;;;;;;7.50;6.43;;;;;;;;;;5082052;28;20065;-68
2021/06/12 12:15:04;;;;;;;6.43;5.83;;;;;;;;;;5105729;28;20094;-69
2021/06/12 12:17:30;;;;;;;6.13;5.53;;;;;;;;;;5070887;28;20270;-69
2021/06/12 12:20:02;;;;;;;3.88;2.80;;;;;;;;;;5083010;28;20023;-68
2021/06/12 12:22:33;;;;;;;4.75;4.35;;;;;;;;;;5084657;28;20020;-68
2021/06/12 12:25:00;;;;;;;3.70;3.38;;;;;;;;;;5086131;28;20062;-69
2021/06/12 12:27:25;;;;;;;3.85;3.55;;;;;;;;;;5070273;28;20095;-69
2021/06/12 12:29:51;;;;;;;4.10;3.80;;;;;;;;;;5073361;28;20481;-68
2021/06/12 12:32:21;;;;;;;4.20;3.80;;;;;;;;;;5101035;28;20024;-68
2021/06/12 12:34:46;;;;;;;4.30;3.45;;;;;;;;;;5068512;28;20858;-68
2021/06/12 12:37:24;;;;;;;3.10;2.90;;;;;;;;;;5070395;28;20071;-68
2021/06/12 12:39:51;;;;;;;3.38;3.05;;;;;;;;;;5071651;28;20040;-69
2021/06/12 12:42:21;;;;;;;2.53;2.33;;;;;;;;;;5072279;28;20468;-68
2021/06/12 12:44:47;;;;;;;4.75;3.17;;;;;;;;;;5071213;28;20101;-67
2021/06/12 12:47:13;;;;;;;3.03;2.10;;;;;;;;;;5072170;28;20028;-69
2021/06/12 12:49:40;;;;;;;5.32;3.00;;;;;;;;;;5083175;28;20012;-69
2021/06/12 12:52:16;;;;;;;2.40;2.15;;;;;;;;;;5113035;27;20012;-69
2021/06/12 12:54:54;;;;;;;4.82;2.90;;;;;;;;;;5078596;28;20023;-68
2021/06/12 12:57:19;;;;;;;3.13;2.28;;;;;;;;;;5070470;28;20033;-69
2021/06/12 12:59:45;;;;;;;3.47;2.13;;;;;;;;;;5070200;28;20379;-69
2021/06/12 13:02:11;;;;;;;2.60;2.40;;;;;;;;;;5076911;28;20297;-68
2021/06/12 13:04:36;;;;;;;3.40;1.90;;;;;;;;;;5067192;28;20444;-69
2021/06/12 13:07:02;;;;;;;1.88;1.58;;;;;;;;;;5069126;28;20043;-69
2021/06/12 13:09:28;;;;;;;2.00;1.85;;;;;;;;;;5117967;27;20044;-69
2021/06/12 13:11:54;;;;;;;1.57;0.90;;;;;;;;;;5065662;28;20023;-69
2021/06/12 13:14:26;;;;;;;2.38;1.40;;;;;;;;;;5071253;28;20275;-69
2021/06/12 13:17:05;;;;;;;1.27;1.10;;;;;;;;;;5068400;28;20472;-69
2021/06/12 13:19:31;;;;;;;2.40;1.42;;;;;;;;;;5075462;28;20016;-68
2021/06/12 13:21:57;;;;;;;1.73;1.10;;;;;;;;;;5070443;28;20016;-69
2021/06/12 13:24:22;;;;;;;1.73;1.15;;;;;;;;;;5069380;28;20766;-68
2021/06/12 13:26:47;;;;;;;0.90;0.80;;;;;;;;;;5066797;28;20759;-68
2021/06/12 13:29:22;;;;;;;1.33;0.98;;;;;;;;;;5067967;28;20020;-68
2021/06/12 13:31:48;;;;;;;;;;;;;;;;;;5067887;28;20024;-68
2021/06/12 13:34:29;;;;;;;0.57;0.43;;;;;;;;;;5070798;28;19909;-68
2021/06/12 13:36:54;;;;;;;1.30;0.55;;;;;;;;;;5066027;28;20091;-70
2021/06/12 13:39:33;;;;;;;0.55;0.35;;;;;;;;;;5069604;28;20040;-69
2021/06/12 13:42:09;;;;;;;2.80;0.88;;;;;;;;;;5066484;28;20472;-70
2021/06/12 13:44:34;;;;;;;0.73;0.55;;;;;;;;;;5066163;28;21489;-70
2021/06/12 13:46:59;;;;;;;0.73;0.65;;;;;;;;;;5061888;28;20143;-69
2021/06/12 13:49:25;;;;;;;0.80;0.60;;;;;;;;;;5063322;28;20051;-69
2021/06/12 13:51:50;;;;;;;2.60;0.70;;;;;;;;;;5063702;28;20464;-69
2021/06/12 13:54:15;;;;;;;1.50;0.57;;;;;;;;;;5063762;28;20358;-69
2021/06/12 13:56:44;;;;;;;1.58;0.77;;;;;;;;;;5062262;28;20031;-69
2021/06/12 13:59:10;;;;;;;0.93;0.60;;;;;;;;;;5066737;28;20560;-69
2021/06/12 14:01:35;;;;;;;0.70;0.40;;;;;;;;;;5097505;27;20016;-69
2021/06/12 14:04:03;;;;;;;1.52;0.60;;;;;;;;;;5068317;28;20463;-70
2021/06/12 14:06:28;;;;;;;1.17;0.50;;;;;;;;;;5063637;28;20028;-69
2021/06/12 14:08:53;;;;;;;2.67;0.90;;;;;;;;;;5061340;28;20070;-70
2021/06/12 14:11:19;;;;;;;0.47;0.47;;;;;;;;;;5065235;28;20020;-69
2021/06/12 14:13:44;;;;;;;2.40;0.63;;;;;;;;;;5066030;28;20086;-69
2021/06/12 14:16:10;;;;;;;2.00;0.88;;;;;;;;;;5064662;28;20103;-69
2021/06/12 14:18:36;;;;;;;1.98;0.73;;;;;;;;;;5061849;28;20518;-69
2021/06/12 14:21:02;;;;;;;2.35;0.73;;;;;;;;;;5065740;28;20016;-68
2021/06/12 14:23:28;;;;;;;1.45;0.88;;;;;;;;;;5063974;28;20029;-69
2021/06/12 14:25:54;;;;;;;1.98;0.90;;;;;;;;;;5062998;28;20487;-69
2021/06/12 14:28:23;;;;;;;1.30;1.20;;;;;;;;;;5061584;28;20112;-69
2021/06/12 14:30:48;;;;;;;2.22;1.20;;;;;;;;;;5063962;28;20274;-69
2021/06/12 14:33:14;;;;;;;1.02;0.90;;;;;;;;;;5069433;28;20043;-69
2021/06/12 14:35:39;;;;;;;5.93;1.88;;;;;;;;;;5064817;28;20028;-69
2021/06/12 14:38:04;;;;;;;2.47;0.77;;;;;;;;;;5062014;28;20380;-68
2021/06/12 14:40:30;;;;;;;5.63;1.30;;;;;;;;;;5060568;28;20412;-68
2021/06/12 14:42:55;;;;;;;3.30;1.25;;;;;;;;;;5064345;28;20024;-70
2021/06/12 14:45:22;;;;;;;5.70;1.30;;;;;;;;;;5062371;28;20099;-70